sensor_id;sensor_type;location;lat;lon;timestamp;P1;durP1;ratioP1;P2;durP2;ratioP2
27666;SDS011;15074;50.940;5.282;2024-03-23T00:53:01;7.90;;;3.75;;
27666;SDS011;15074;50.940;5.282;2024-03-23T00:55:27;10.18;;;3.70;;
27666;SDS011;15074;50.940;5.282;2024-03-23T00:57:52;9.48;;;3.35;;
27666;SDS011;15074;50.940;5.282;2024-03-23T01:00:18;7.45;;;3.35;;
27666;SDS011;15074;50.940;5.282;2024-03-23T01:02:44;14.07;;;3.72;;
27666;SDS011;15074;50.940;5.282;2024-03-23T01:05:09;9.43;;;3.70;;
27666;SDS011;15074;50.940;5.282;2024-03-23T01:07:35;8.88;;;3.50;;
27666;SDS011;15074;50.940;5.282;2024-03-23T01:10:01;8.05;;;3.75;;
27666;SDS011;15074;50.940;5.282;2024-03-23T01:12:26;7.95;;;3.90;;
27666;SDS011;15074;50.940;5.282;2024-03-23T01:14:52;13.77;;;3.65;;
27666;SDS011;15074;50.940;5.282;2024-03-23T01:17:17;6.25;;;3.15;;
27666;SDS011;15074;50.940;5.282;2024-03-23T01:19:43;12.50;;;3.65;;
27666;SDS011;15074;50.940;5.282;2024-03-23T01:22:09;8.55;;;3.38;;
27666;SDS011;15074;50.940;5.282;2024-03-23T01:24:38;9.75;;;3.10;;
27666;SDS011;15074;50.940;5.282;2024-03-23T01:27:03;9.73;;;3.95;;
27666;SDS011;15074;50.940;5.282;2024-03-23T01:29:29;10.35;;;3.58;;
27666;SDS011;15074;50.940;5.282;2024-03-23T01:31:55;5.30;;;2.50;;
27666;SDS011;15074;50.940;5.282;2024-03-23T01:34:21;6.32;;;2.60;;
27666;SDS011;15074;50.940;5.282;2024-03-23T01:36:47;14.40;;;3.10;;
27666;SDS011;15074;50.940;5.282;2024-03-23T01:39:12;5.28;;;2.25;;
27666;SDS011;15074;50.940;5.282;2024-03-23T01:41:39;9.77;;;3.10;;
27666;SDS011;15074;50.940;5.282;2024-03-23T01:44:07;7.15;;;3.03;;
27666;SDS011;15074;50.940;5.282;2024-03-23T01:46:33;13.95;;;3.33;;
27666;SDS011;15074;50.940;5.282;2024-03-23T01:49:00;10.57;;;2.83;;
27666;SDS011;15074;50.940;5.282;2024-03-23T01:51:26;15.05;;;3.75;;
27666;SDS011;15074;50.940;5.282;2024-03-23T01:53:53;7.65;;;2.83;;
27666;SDS011;15074;50.940;5.282;2024-03-23T01:56:21;7.50;;;2.60;;
27666;SDS011;15074;50.940;5.282;2024-03-23T01:58:46;13.65;;;3.85;;
27666;SDS011;15074;50.940;5.282;2024-03-23T02:01:12;7.40;;;2.58;;
27666;SDS011;15074;50.940;5.282;2024-03-23T02:03:38;7.35;;;2.78;;
27666;SDS011;15074;50.940;5.282;2024-03-23T02:06:03;11.63;;;3.08;;
27666;SDS011;15074;50.940;5.282;2024-03-23T02:08:32;7.88;;;3.53;;
27666;SDS011;15074;50.940;5.282;2024-03-23T02:10:58;16.17;;;4.18;;
27666;SDS011;15074;50.940;5.282;2024-03-23T02:13:24;14.30;;;4.13;;
27666;SDS011;15074;50.940;5.282;2024-03-23T02:15:49;14.25;;;3.97;;
27666;SDS011;15074;50.940;5.282;2024-03-23T02:18:15;18.55;;;4.80;;
27666;SDS011;15074;50.940;5.282;2024-03-23T02:20:40;6.78;;;4.15;;
27666;SDS011;15074;50.940;5.282;2024-03-23T02:23:12;7.88;;;3.63;;
27666;SDS011;15074;50.940;5.282;2024-03-23T02:25:39;11.85;;;4.28;;
27666;SDS011;15074;50.940;5.282;2024-03-23T02:28:04;10.10;;;4.43;;
27666;SDS011;15074;50.940;5.282;2024-03-23T02:30:30;8.82;;;4.85;;
27666;SDS011;15074;50.940;5.282;2024-03-23T02:32:56;9.38;;;4.20;;
27666;SDS011;15074;50.940;5.282;2024-03-23T02:35:21;9.65;;;4.70;;
27666;SDS011;15074;50.940;5.282;2024-03-23T02:37:47;12.27;;;4.95;;
27666;SDS011;15074;50.940;5.282;2024-03-23T02:40:16;9.45;;;4.13;;
27666;SDS011;15074;50.940;5.282;2024-03-23T02:42:42;7.30;;;3.85;;
27666;SDS011;15074;50.940;5.282;2024-03-23T02:45:08;8.95;;;3.75;;
27666;SDS011;15074;50.940;5.282;2024-03-23T02:47:34;10.93;;;3.78;;
27666;SDS011;15074;50.940;5.282;2024-03-23T02:50:00;11.73;;;3.90;;
27666;SDS011;15074;50.940;5.282;2024-03-23T02:52:25;13.48;;;4.40;;
27666;SDS011;15074;50.940;5.282;2024-03-23T02:54:51;11.13;;;4.90;;
27666;SDS011;15074;50.940;5.282;2024-03-23T02:57:16;16.52;;;4.80;;
27666;SDS011;15074;50.940;5.282;2024-03-23T02:59:42;11.63;;;4.47;;
27666;SDS011;15074;50.940;5.282;2024-03-23T03:02:08;11.85;;;4.20;;
27666;SDS011;15074;50.940;5.282;2024-03-23T03:04:33;11.98;;;4.93;;
27666;SDS011;15074;50.940;5.282;2024-03-23T03:06:59;17.83;;;4.75;;
27666;SDS011;15074;50.940;5.282;2024-03-23T03:09:25;15.60;;;4.80;;
27666;SDS011;15074;50.940;5.282;2024-03-23T03:11:51;15.95;;;4.78;;
27666;SDS011;15074;50.940;5.282;2024-03-23T03:14:16;10.80;;;4.40;;
27666;SDS011;15074;50.940;5.282;2024-03-23T03:16:42;8.95;;;5.15;;
27666;SDS011;15074;50.940;5.282;2024-03-23T03:19:08;12.57;;;4.43;;
27666;SDS011;15074;50.940;5.282;2024-03-23T03:21:35;16.60;;;4.07;;
27666;SDS011;15074;50.940;5.282;2024-03-23T03:24:01;9.30;;;3.92;;
27666;SDS011;15074;50.940;5.282;2024-03-23T03:26:27;16.65;;;4.95;;
27666;SDS011;15074;50.940;5.282;2024-03-23T03:28:52;12.25;;;3.13;;
27666;SDS011;15074;50.940;5.282;2024-03-23T03:31:18;9.27;;;3.67;;
27666;SDS011;15074;50.940;5.282;2024-03-23T03:33:44;9.93;;;3.97;;
27666;SDS011;15074;50.940;5.282;2024-03-23T03:36:10;8.27;;;3.15;;
27666;SDS011;15074;50.940;5.282;2024-03-23T03:38:36;7.55;;;3.50;;
27666;SDS011;15074;50.940;5.282;2024-03-23T03:41:02;13.07;;;3.55;;
27666;SDS011;15074;50.940;5.282;2024-03-23T03:43:28;6.93;;;3.03;;
27666;SDS011;15074;50.940;5.282;2024-03-23T03:45:54;8.75;;;3.13;;
27666;SDS011;15074;50.940;5.282;2024-03-23T03:48:20;8.13;;;3.60;;
27666;SDS011;15074;50.940;5.282;2024-03-23T03:50:46;6.80;;;2.90;;
27666;SDS011;15074;50.940;5.282;2024-03-23T03:53:12;8.55;;;3.35;;
27666;SDS011;15074;50.940;5.282;2024-03-23T03:55:37;4.90;;;2.83;;
27666;SDS011;15074;50.940;5.282;2024-03-23T03:58:03;8.90;;;2.85;;
27666;SDS011;15074;50.940;5.282;2024-03-23T04:00:29;7.07;;;3.28;;
27666;SDS011;15074;50.940;5.282;2024-03-23T04:02:55;12.93;;;3.53;;
27666;SDS011;15074;50.940;5.282;2024-03-23T04:05:21;14.07;;;4.00;;
27666;SDS011;15074;50.940;5.282;2024-03-23T04:07:47;13.65;;;3.50;;
27666;SDS011;15074;50.940;5.282;2024-03-23T04:10:13;9.98;;;3.85;;
27666;SDS011;15074;50.940;5.282;2024-03-23T04:12:40;10.55;;;3.58;;
27666;SDS011;15074;50.940;5.282;2024-03-23T04:15:06;9.68;;;4.18;;
27666;SDS011;15074;50.940;5.282;2024-03-23T04:17:33;11.57;;;4.35;;
27666;SDS011;15074;50.940;5.282;2024-03-23T04:19:59;11.80;;;4.05;;
27666;SDS011;15074;50.940;5.282;2024-03-23T04:22:26;8.15;;;4.22;;
27666;SDS011;15074;50.940;5.282;2024-03-23T04:24:55;10.25;;;4.68;;
27666;SDS011;15074;50.940;5.282;2024-03-23T04:27:22;12.02;;;4.68;;
27666;SDS011;15074;50.940;5.282;2024-03-23T04:29:50;17.77;;;5.88;;
27666;SDS011;15074;50.940;5.282;2024-03-23T04:32:18;8.75;;;5.10;;
27666;SDS011;15074;50.940;5.282;2024-03-23T04:34:44;13.32;;;5.65;;
27666;SDS011;15074;50.940;5.282;2024-03-23T04:37:10;12.68;;;5.35;;
27666;SDS011;15074;50.940;5.282;2024-03-23T04:39:36;11.48;;;6.03;;
27666;SDS011;15074;50.940;5.282;2024-03-23T04:42:03;10.60;;;5.70;;
27666;SDS011;15074;50.940;5.282;2024-03-23T04:44:29;14.68;;;6.32;;
27666;SDS011;15074;50.940;5.282;2024-03-23T04:46:55;16.83;;;6.70;;
27666;SDS011;15074;50.940;5.282;2024-03-23T04:49:22;21.65;;;7.53;;
27666;SDS011;15074;50.940;5.282;2024-03-23T04:51:47;17.08;;;8.40;;
27666;SDS011;15074;50.940;5.282;2024-03-23T04:54:13;15.38;;;6.85;;
27666;SDS011;15074;50.940;5.282;2024-03-23T04:56:38;16.77;;;8.18;;
27666;SDS011;15074;50.940;5.282;2024-03-23T04:59:04;15.98;;;7.20;;
27666;SDS011;15074;50.940;5.282;2024-03-23T05:01:33;14.15;;;6.72;;
27666;SDS011;15074;50.940;5.282;2024-03-23T05:03:59;11.57;;;6.93;;
27666;SDS011;15074;50.940;5.282;2024-03-23T05:06:24;17.25;;;7.03;;
27666;SDS011;15074;50.940;5.282;2024-03-23T05:08:51;12.85;;;7.68;;
27666;SDS011;15074;50.940;5.282;2024-03-23T05:11:17;17.08;;;8.40;;
27666;SDS011;15074;50.940;5.282;2024-03-23T05:13:42;13.55;;;8.18;;
27666;SDS011;15074;50.940;5.282;2024-03-23T05:16:08;24.98;;;8.77;;
27666;SDS011;15074;50.940;5.282;2024-03-23T05:21:18;27.48;;;10.32;;
27666;SDS011;15074;50.940;5.282;2024-03-23T05:23:44;21.80;;;9.32;;
27666;SDS011;15074;50.940;5.282;2024-03-23T05:26:17;17.70;;;9.60;;
27666;SDS011;15074;50.940;5.282;2024-03-23T05:31:49;27.70;;;10.75;;
27666;SDS011;15074;50.940;5.282;2024-03-23T05:34:16;27.77;;;10.50;;
27666;SDS011;15074;50.940;5.282;2024-03-23T05:39:40;22.85;;;10.18;;
27666;SDS011;15074;50.940;5.282;2024-03-23T05:42:06;25.77;;;11.15;;
27666;SDS011;15074;50.940;5.282;2024-03-23T05:44:32;24.23;;;10.93;;
27666;SDS011;15074;50.940;5.282;2024-03-23T05:46:58;27.67;;;10.57;;
27666;SDS011;15074;50.940;5.282;2024-03-23T05:49:23;29.45;;;11.18;;
27666;SDS011;15074;50.940;5.282;2024-03-23T05:51:52;23.60;;;11.35;;
27666;SDS011;15074;50.940;5.282;2024-03-23T05:54:18;26.88;;;10.38;;
27666;SDS011;15074;50.940;5.282;2024-03-23T05:56:43;24.92;;;10.93;;
27666;SDS011;15074;50.940;5.282;2024-03-23T05:59:09;22.15;;;10.70;;
27666;SDS011;15074;50.940;5.282;2024-03-23T06:01:34;20.98;;;10.63;;
27666;SDS011;15074;50.940;5.282;2024-03-23T06:04:00;19.45;;;10.00;;
27666;SDS011;15074;50.940;5.282;2024-03-23T06:06:26;26.52;;;9.38;;
27666;SDS011;15074;50.940;5.282;2024-03-23T06:08:55;19.58;;;9.43;;
27666;SDS011;15074;50.940;5.282;2024-03-23T06:11:26;25.85;;;9.85;;
27666;SDS011;15074;50.940;5.282;2024-03-23T06:16:55;26.45;;;9.77;;
27666;SDS011;15074;50.940;5.282;2024-03-23T06:19:20;15.23;;;8.27;;
27666;SDS011;15074;50.940;5.282;2024-03-23T06:24:38;23.60;;;8.88;;
27666;SDS011;15074;50.940;5.282;2024-03-23T06:27:03;11.73;;;8.00;;
27666;SDS011;15074;50.940;5.282;2024-03-23T06:29:29;10.85;;;7.45;;
27666;SDS011;15074;50.940;5.282;2024-03-23T06:31:55;20.05;;;8.68;;
27666;SDS011;15074;50.940;5.282;2024-03-23T06:34:21;11.93;;;7.53;;
27666;SDS011;15074;50.940;5.282;2024-03-23T06:36:47;13.07;;;7.88;;
27666;SDS011;15074;50.940;5.282;2024-03-23T06:39:14;16.77;;;7.68;;
27666;SDS011;15074;50.940;5.282;2024-03-23T06:41:43;13.00;;;8.93;;
27666;SDS011;15074;50.940;5.282;2024-03-23T06:44:16;14.27;;;9.25;;
27666;SDS011;15074;50.940;5.282;2024-03-23T06:46:42;11.55;;;7.13;;
27666;SDS011;15074;50.940;5.282;2024-03-23T06:49:08;15.88;;;7.50;;
27666;SDS011;15074;50.940;5.282;2024-03-23T06:51:33;14.70;;;6.88;;
27666;SDS011;15074;50.940;5.282;2024-03-23T06:53:59;15.18;;;7.38;;
27666;SDS011;15074;50.940;5.282;2024-03-23T06:56:25;11.80;;;6.35;;
27666;SDS011;15074;50.940;5.282;2024-03-23T06:58:50;18.30;;;7.72;;
27666;SDS011;15074;50.940;5.282;2024-03-23T07:01:16;15.50;;;6.88;;
27666;SDS011;15074;50.940;5.282;2024-03-23T07:03:43;13.95;;;7.40;;
27666;SDS011;15074;50.940;5.282;2024-03-23T07:06:09;9.90;;;6.45;;
27666;SDS011;15074;50.940;5.282;2024-03-23T07:08:35;7.95;;;5.32;;
27666;SDS011;15074;50.940;5.282;2024-03-23T07:11:01;10.20;;;6.53;;
27666;SDS011;15074;50.940;5.282;2024-03-23T07:13:27;10.65;;;6.45;;
27666;SDS011;15074;50.940;5.282;2024-03-23T07:15:53;10.15;;;6.78;;
27666;SDS011;15074;50.940;5.282;2024-03-23T07:18:20;15.90;;;6.13;;
27666;SDS011;15074;50.940;5.282;2024-03-23T07:20:56;7.38;;;5.97;;
27666;SDS011;15074;50.940;5.282;2024-03-23T07:23:25;12.52;;;5.57;;
27666;SDS011;15074;50.940;5.282;2024-03-23T07:25:57;8.50;;;5.78;;
27666;SDS011;15074;50.940;5.282;2024-03-23T07:28:23;12.60;;;5.95;;
27666;SDS011;15074;50.940;5.282;2024-03-23T07:30:58;9.63;;;5.35;;
27666;SDS011;15074;50.940;5.282;2024-03-23T07:33:45;10.85;;;5.97;;
27666;SDS011;15074;50.940;5.282;2024-03-23T07:36:11;7.70;;;4.72;;
27666;SDS011;15074;50.940;5.282;2024-03-23T07:38:39;8.93;;;5.30;;
27666;SDS011;15074;50.940;5.282;2024-03-23T07:41:06;9.80;;;5.55;;
27666;SDS011;15074;50.940;5.282;2024-03-23T07:43:33;16.05;;;4.97;;
27666;SDS011;15074;50.940;5.282;2024-03-23T07:46:00;9.13;;;5.20;;
27666;SDS011;15074;50.940;5.282;2024-03-23T07:48:26;7.85;;;4.45;;
27666;SDS011;15074;50.940;5.282;2024-03-23T07:51:02;12.95;;;4.75;;
27666;SDS011;15074;50.940;5.282;2024-03-23T07:53:32;9.10;;;3.47;;
27666;SDS011;15074;50.940;5.282;2024-03-23T07:55:59;8.00;;;3.20;;
27666;SDS011;15074;50.940;5.282;2024-03-23T07:58:26;10.35;;;3.75;;
27666;SDS011;15074;50.940;5.282;2024-03-23T08:00:53;14.38;;;3.42;;
27666;SDS011;15074;50.940;5.282;2024-03-23T08:03:19;6.63;;;2.38;;
27666;SDS011;15074;50.940;5.282;2024-03-23T08:05:45;6.43;;;2.35;;
27666;SDS011;15074;50.940;5.282;2024-03-23T08:08:11;7.32;;;2.20;;
27666;SDS011;15074;50.940;5.282;2024-03-23T08:10:46;6.65;;;1.95;;
27666;SDS011;15074;50.940;5.282;2024-03-23T08:13:16;6.13;;;2.60;;
27666;SDS011;15074;50.940;5.282;2024-03-23T08:15:41;7.40;;;2.83;;
27666;SDS011;15074;50.940;5.282;2024-03-23T08:18:07;11.82;;;2.65;;
27666;SDS011;15074;50.940;5.282;2024-03-23T08:20:33;14.00;;;2.50;;
27666;SDS011;15074;50.940;5.282;2024-03-23T08:22:59;8.32;;;2.13;;
27666;SDS011;15074;50.940;5.282;2024-03-23T08:25:25;6.65;;;1.83;;
27666;SDS011;15074;50.940;5.282;2024-03-23T08:27:50;4.70;;;1.60;;
27666;SDS011;15074;50.940;5.282;2024-03-23T08:30:17;4.97;;;2.30;;
27666;SDS011;15074;50.940;5.282;2024-03-23T08:32:43;5.78;;;2.38;;
27666;SDS011;15074;50.940;5.282;2024-03-23T08:35:09;7.30;;;1.70;;
27666;SDS011;15074;50.940;5.282;2024-03-23T08:37:34;4.07;;;2.55;;
27666;SDS011;15074;50.940;5.282;2024-03-23T08:40:00;5.50;;;1.88;;
27666;SDS011;15074;50.940;5.282;2024-03-23T08:42:26;7.20;;;1.85;;
27666;SDS011;15074;50.940;5.282;2024-03-23T08:44:51;8.30;;;1.60;;
27666;SDS011;15074;50.940;5.282;2024-03-23T08:47:17;6.05;;;1.67;;
27666;SDS011;15074;50.940;5.282;2024-03-23T08:49:44;6.57;;;2.58;;
27666;SDS011;15074;50.940;5.282;2024-03-23T08:52:09;4.80;;;2.33;;
27666;SDS011;15074;50.940;5.282;2024-03-23T08:54:35;4.38;;;1.73;;
27666;SDS011;15074;50.940;5.282;2024-03-23T08:57:01;5.38;;;1.63;;
27666;SDS011;15074;50.940;5.282;2024-03-23T08:59:26;3.05;;;1.20;;
27666;SDS011;15074;50.940;5.282;2024-03-23T09:01:52;4.20;;;1.50;;
27666;SDS011;15074;50.940;5.282;2024-03-23T09:04:18;4.25;;;1.60;;
27666;SDS011;15074;50.940;5.282;2024-03-23T09:06:44;8.27;;;2.15;;
27666;SDS011;15074;50.940;5.282;2024-03-23T09:09:10;4.75;;;1.70;;
27666;SDS011;15074;50.940;5.282;2024-03-23T09:11:35;6.15;;;1.50;;
27666;SDS011;15074;50.940;5.282;2024-03-23T09:14:02;3.45;;;1.30;;
27666;SDS011;15074;50.940;5.282;2024-03-23T09:16:28;5.65;;;1.60;;
27666;SDS011;15074;50.940;5.282;2024-03-23T09:18:54;5.55;;;2.03;;
27666;SDS011;15074;50.940;5.282;2024-03-23T09:21:19;8.25;;;2.45;;
27666;SDS011;15074;50.940;5.282;2024-03-23T09:23:45;8.25;;;2.17;;
27666;SDS011;15074;50.940;5.282;2024-03-23T09:26:11;5.57;;;2.00;;
27666;SDS011;15074;50.940;5.282;2024-03-23T09:28:36;4.47;;;1.92;;
27666;SDS011;15074;50.940;5.282;2024-03-23T09:31:05;8.75;;;1.83;;
27666;SDS011;15074;50.940;5.282;2024-03-23T09:33:32;6.60;;;1.65;;
27666;SDS011;15074;50.940;5.282;2024-03-23T09:35:59;6.07;;;1.52;;
27666;SDS011;15074;50.940;5.282;2024-03-23T09:38:29;3.67;;;1.25;;
27666;SDS011;15074;50.940;5.282;2024-03-23T09:40:54;5.20;;;1.27;;
27666;SDS011;15074;50.940;5.282;2024-03-23T09:43:20;5.68;;;1.30;;
27666;SDS011;15074;50.940;5.282;2024-03-23T09:45:46;5.25;;;1.55;;
27666;SDS011;15074;50.940;5.282;2024-03-23T09:48:12;4.10;;;1.40;;
27666;SDS011;15074;50.940;5.282;2024-03-23T09:50:38;12.30;;;1.88;;
27666;SDS011;15074;50.940;5.282;2024-03-23T09:53:05;5.38;;;1.75;;
27666;SDS011;15074;50.940;5.282;2024-03-23T09:57:57;9.70;;;2.30;;
27666;SDS011;15074;50.940;5.282;2024-03-23T10:00:24;7.07;;;1.48;;
27666;SDS011;15074;50.940;5.282;2024-03-23T10:02:50;5.63;;;1.65;;
27666;SDS011;15074;50.940;5.282;2024-03-23T10:05:19;5.82;;;2.10;;
27666;SDS011;15074;50.940;5.282;2024-03-23T10:07:47;5.30;;;1.73;;
27666;SDS011;15074;50.940;5.282;2024-03-23T10:10:13;6.95;;;2.20;;
27666;SDS011;15074;50.940;5.282;2024-03-23T10:12:47;6.40;;;2.00;;
27666;SDS011;15074;50.940;5.282;2024-03-23T10:15:24;7.05;;;2.03;;
27666;SDS011;15074;50.940;5.282;2024-03-23T10:17:50;4.07;;;1.60;;
27666;SDS011;15074;50.940;5.282;2024-03-23T10:20:20;3.85;;;1.52;;
27666;SDS011;15074;50.940;5.282;2024-03-23T10:22:49;5.43;;;2.03;;
27666;SDS011;15074;50.940;5.282;2024-03-23T10:25:16;4.85;;;1.40;;
27666;SDS011;15074;50.940;5.282;2024-03-23T10:27:42;3.42;;;0.98;;
27666;SDS011;15074;50.940;5.282;2024-03-23T10:30:09;4.30;;;1.20;;
27666;SDS011;15074;50.940;5.282;2024-03-23T10:32:36;2.53;;;1.00;;
27666;SDS011;15074;50.940;5.282;2024-03-23T10:35:18;4.35;;;1.45;;
27666;SDS011;15074;50.940;5.282;2024-03-23T10:37:47;6.68;;;1.33;;
27666;SDS011;15074;50.940;5.282;2024-03-23T10:40:14;4.68;;;1.15;;
27666;SDS011;15074;50.940;5.282;2024-03-23T10:42:41;4.00;;;1.50;;
27666;SDS011;15074;50.940;5.282;2024-03-23T10:45:07;6.70;;;1.48;;
27666;SDS011;15074;50.940;5.282;2024-03-23T10:47:34;5.28;;;1.30;;
27666;SDS011;15074;50.940;5.282;2024-03-23T10:50:01;3.45;;;0.98;;
27666;SDS011;15074;50.940;5.282;2024-03-23T10:52:28;0.95;;;0.60;;
27666;SDS011;15074;50.940;5.282;2024-03-23T10:54:54;1.98;;;0.65;;
27666;SDS011;15074;50.940;5.282;2024-03-23T10:57:21;3.25;;;1.30;;
27666;SDS011;15074;50.940;5.282;2024-03-23T10:59:52;5.90;;;1.50;;
27666;SDS011;15074;50.940;5.282;2024-03-23T11:02:19;2.45;;;1.10;;
27666;SDS011;15074;50.940;5.282;2024-03-23T11:04:45;3.38;;;1.13;;
27666;SDS011;15074;50.940;5.282;2024-03-23T11:09:51;3.47;;;1.50;;
27666;SDS011;15074;50.940;5.282;2024-03-23T11:17:28;3.17;;;1.20;;
27666;SDS011;15074;50.940;5.282;2024-03-23T11:22:45;4.25;;;1.65;;
27666;SDS011;15074;50.940;5.282;2024-03-23T11:27:45;1.75;;;0.80;;
27666;SDS011;15074;50.940;5.282;2024-03-23T11:32:44;2.33;;;0.80;;
27666;SDS011;15074;50.940;5.282;2024-03-23T11:35:27;3.17;;;0.70;;
27666;SDS011;15074;50.940;5.282;2024-03-23T11:38:10;2.13;;;0.90;;
27666;SDS011;15074;50.940;5.282;2024-03-23T11:40:50;3.92;;;0.90;;
27666;SDS011;15074;50.940;5.282;2024-03-23T11:43:16;2.15;;;0.90;;
27666;SDS011;15074;50.940;5.282;2024-03-23T11:45:50;5.20;;;1.23;;
27666;SDS011;15074;50.940;5.282;2024-03-23T11:48:18;3.97;;;1.38;;
27666;SDS011;15074;50.940;5.282;2024-03-23T11:50:49;5.05;;;1.38;;
27666;SDS011;15074;50.940;5.282;2024-03-23T11:53:22;5.22;;;1.92;;
27666;SDS011;15074;50.940;5.282;2024-03-23T11:55:58;4.25;;;1.42;;
27666;SDS011;15074;50.940;5.282;2024-03-23T11:58:26;2.22;;;0.93;;
27666;SDS011;15074;50.940;5.282;2024-03-23T12:00:56;2.60;;;0.90;;
27666;SDS011;15074;50.940;5.282;2024-03-23T12:03:29;2.42;;;1.45;;
27666;SDS011;15074;50.940;5.282;2024-03-23T12:06:02;0.50;;;0.50;;
27666;SDS011;15074;50.940;5.282;2024-03-23T12:08:29;1.73;;;0.80;;
27666;SDS011;15074;50.940;5.282;2024-03-23T12:11:11;1.40;;;0.88;;
27666;SDS011;15074;50.940;5.282;2024-03-23T12:13:41;3.00;;;0.80;;
27666;SDS011;15074;50.940;5.282;2024-03-23T12:16:18;1.10;;;0.70;;
27666;SDS011;15074;50.940;5.282;2024-03-23T12:18:46;2.90;;;1.10;;
27666;SDS011;15074;50.940;5.282;2024-03-23T12:21:16;4.45;;;1.10;;
27666;SDS011;15074;50.940;5.282;2024-03-23T12:23:42;2.83;;;0.80;;
27666;SDS011;15074;50.940;5.282;2024-03-23T12:26:10;1.77;;;0.98;;
27666;SDS011;15074;50.940;5.282;2024-03-23T12:28:37;3.17;;;0.90;;
27666;SDS011;15074;50.940;5.282;2024-03-23T12:31:02;2.03;;;0.90;;
27666;SDS011;15074;50.940;5.282;2024-03-23T12:33:28;2.75;;;1.10;;
27666;SDS011;15074;50.940;5.282;2024-03-23T12:35:54;4.00;;;1.27;;
27666;SDS011;15074;50.940;5.282;2024-03-23T12:38:20;3.70;;;1.10;;
27666;SDS011;15074;50.940;5.282;2024-03-23T12:40:46;2.78;;;1.10;;
27666;SDS011;15074;50.940;5.282;2024-03-23T12:43:15;3.22;;;1.27;;
27666;SDS011;15074;50.940;5.282;2024-03-23T12:45:41;2.42;;;1.10;;
27666;SDS011;15074;50.940;5.282;2024-03-23T12:48:13;2.97;;;1.13;;
27666;SDS011;15074;50.940;5.282;2024-03-23T12:50:39;3.22;;;1.30;;
27666;SDS011;15074;50.940;5.282;2024-03-23T12:53:04;2.88;;;1.15;;
27666;SDS011;15074;50.940;5.282;2024-03-23T12:55:30;3.75;;;1.65;;
27666;SDS011;15074;50.940;5.282;2024-03-23T12:57:56;3.42;;;0.93;;
27666;SDS011;15074;50.940;5.282;2024-03-23T13:00:21;5.22;;;1.30;;
27666;SDS011;15074;50.940;5.282;2024-03-23T13:02:47;5.78;;;1.10;;
27666;SDS011;15074;50.940;5.282;2024-03-23T13:05:13;3.38;;;1.25;;
27666;SDS011;15074;50.940;5.282;2024-03-23T13:07:38;4.68;;;1.13;;
27666;SDS011;15074;50.940;5.282;2024-03-23T13:10:07;2.28;;;0.82;;
27666;SDS011;15074;50.940;5.282;2024-03-23T13:12:33;3.08;;;1.10;;
27666;SDS011;15074;50.940;5.282;2024-03-23T13:14:59;5.28;;;1.08;;
27666;SDS011;15074;50.940;5.282;2024-03-23T13:17:26;2.85;;;1.08;;
27666;SDS011;15074;50.940;5.282;2024-03-23T13:19:52;5.13;;;1.52;;
27666;SDS011;15074;50.940;5.282;2024-03-23T13:22:18;2.78;;;0.90;;
27666;SDS011;15074;50.940;5.282;2024-03-23T13:24:44;5.00;;;1.10;;
27666;SDS011;15074;50.940;5.282;2024-03-23T13:27:09;5.60;;;1.48;;
27666;SDS011;15074;50.940;5.282;2024-03-23T13:29:36;4.47;;;1.27;;
27666;SDS011;15074;50.940;5.282;2024-03-23T13:32:02;4.50;;;1.30;;
27666;SDS011;15074;50.940;5.282;2024-03-23T13:34:29;3.00;;;0.85;;
27666;SDS011;15074;50.940;5.282;2024-03-23T13:36:55;2.70;;;1.00;;
27666;SDS011;15074;50.940;5.282;2024-03-23T13:39:24;2.33;;;0.80;;
27666;SDS011;15074;50.940;5.282;2024-03-23T13:41:50;6.07;;;0.90;;
27666;SDS011;15074;50.940;5.282;2024-03-23T13:44:16;0.93;;;0.60;;
27666;SDS011;15074;50.940;5.282;2024-03-23T13:46:41;3.30;;;0.80;;
27666;SDS011;15074;50.940;5.282;2024-03-23T13:51:53;2.78;;;0.75;;
27666;SDS011;15074;50.940;5.282;2024-03-23T13:54:23;1.58;;;0.65;;
27666;SDS011;15074;50.940;5.282;2024-03-23T13:56:52;1.10;;;0.43;;
27666;SDS011;15074;50.940;5.282;2024-03-23T13:59:18;1.95;;;0.77;;
27666;SDS011;15074;50.940;5.282;2024-03-23T14:01:44;1.60;;;0.82;;
27666;SDS011;15074;50.940;5.282;2024-03-23T14:04:13;1.67;;;0.80;;
27666;SDS011;15074;50.940;5.282;2024-03-23T14:06:41;1.80;;;0.70;;
27666;SDS011;15074;50.940;5.282;2024-03-23T14:09:07;1.38;;;0.60;;
27666;SDS011;15074;50.940;5.282;2024-03-23T14:11:34;1.15;;;0.73;;
27666;SDS011;15074;50.940;5.282;2024-03-23T14:14:01;0.90;;;0.50;;
27666;SDS011;15074;50.940;5.282;2024-03-23T14:16:28;1.85;;;0.40;;
27666;SDS011;15074;50.940;5.282;2024-03-23T14:18:54;2.40;;;0.50;;
27666;SDS011;15074;50.940;5.282;2024-03-23T14:21:20;2.13;;;0.60;;
27666;SDS011;15074;50.940;5.282;2024-03-23T14:23:46;0.68;;;0.50;;
27666;SDS011;15074;50.940;5.282;2024-03-23T14:26:11;1.27;;;0.60;;
27666;SDS011;15074;50.940;5.282;2024-03-23T14:28:37;2.67;;;0.80;;
27666;SDS011;15074;50.940;5.282;2024-03-23T14:31:02;1.65;;;0.47;;
27666;SDS011;15074;50.940;5.282;2024-03-23T14:33:35;2.67;;;0.80;;
27666;SDS011;15074;50.940;5.282;2024-03-23T14:36:07;4.60;;;0.63;;
27666;SDS011;15074;50.940;5.282;2024-03-23T14:38:33;2.53;;;0.80;;
27666;SDS011;15074;50.940;5.282;2024-03-23T14:40:59;2.65;;;0.75;;
27666;SDS011;15074;50.940;5.282;2024-03-23T14:43:27;2.92;;;1.15;;
27666;SDS011;15074;50.940;5.282;2024-03-23T14:46:10;2.53;;;1.30;;
27666;SDS011;15074;50.940;5.282;2024-03-23T14:48:36;4.30;;;1.30;;
27666;SDS011;15074;50.940;5.282;2024-03-23T14:51:02;4.57;;;1.60;;
27666;SDS011;15074;50.940;5.282;2024-03-23T14:53:33;5.55;;;1.20;;
27666;SDS011;15074;50.940;5.282;2024-03-23T14:56:01;13.70;;;1.67;;
27666;SDS011;15074;50.940;5.282;2024-03-23T14:58:28;2.70;;;1.40;;
27666;SDS011;15074;50.940;5.282;2024-03-23T15:01:09;1.73;;;1.20;;
27666;SDS011;15074;50.940;5.282;2024-03-23T15:03:35;1.95;;;1.10;;
27666;SDS011;15074;50.940;5.282;2024-03-23T15:06:04;3.55;;;1.80;;
27666;SDS011;15074;50.940;5.282;2024-03-23T15:08:31;2.67;;;1.42;;
27666;SDS011;15074;50.940;5.282;2024-03-23T15:11:00;2.38;;;1.23;;
27666;SDS011;15074;50.940;5.282;2024-03-23T15:13:30;1.20;;;0.60;;
27666;SDS011;15074;50.940;5.282;2024-03-23T15:15:58;3.53;;;0.82;;
27666;SDS011;15074;50.940;5.282;2024-03-23T15:18:24;1.70;;;0.70;;
27666;SDS011;15074;50.940;5.282;2024-03-23T15:20:55;3.13;;;0.80;;
27666;SDS011;15074;50.940;5.282;2024-03-23T15:23:22;2.20;;;0.70;;
27666;SDS011;15074;50.940;5.282;2024-03-23T15:25:57;3.28;;;1.00;;
27666;SDS011;15074;50.940;5.282;2024-03-23T15:28:24;1.85;;;0.80;;
27666;SDS011;15074;50.940;5.282;2024-03-23T15:31:05;1.40;;;0.70;;
27666;SDS011;15074;50.940;5.282;2024-03-23T15:33:31;2.85;;;0.70;;
27666;SDS011;15074;50.940;5.282;2024-03-23T15:42:19;2.38;;;1.15;;
27666;SDS011;15074;50.940;5.282;2024-03-23T15:44:45;2.65;;;1.02;;
27666;SDS011;15074;50.940;5.282;2024-03-23T15:47:11;1.77;;;0.93;;
27666;SDS011;15074;50.940;5.282;2024-03-23T15:49:36;10.13;;;1.45;;
27666;SDS011;15074;50.940;5.282;2024-03-23T15:52:02;3.05;;;0.90;;
27666;SDS011;15074;50.940;5.282;2024-03-23T15:54:28;2.75;;;0.90;;
27666;SDS011;15074;50.940;5.282;2024-03-23T15:56:54;6.50;;;1.00;;
27666;SDS011;15074;50.940;5.282;2024-03-23T15:59:19;1.80;;;0.90;;
27666;SDS011;15074;50.940;5.282;2024-03-23T16:14:42;3.38;;;1.20;;
27666;SDS011;15074;50.940;5.282;2024-03-23T16:17:08;4.20;;;1.27;;
27666;SDS011;15074;50.940;5.282;2024-03-23T16:19:33;4.03;;;1.58;;
27666;SDS011;15074;50.940;5.282;2024-03-23T16:38:19;3.58;;;1.33;;
27666;SDS011;15074;50.940;5.282;2024-03-23T16:40:52;3.35;;;1.83;;
27666;SDS011;15074;50.940;5.282;2024-03-23T16:43:24;3.28;;;1.50;;
27666;SDS011;15074;50.940;5.282;2024-03-23T18:02:07;6.95;;;3.40;;